Terminal Aerodrome Forecast
Issued by NWS Billings, MT

Home | Current Version | Previous Version | Text Only | Print | Product List | Glossary On
Versions: 1 2 3 4 5 6 7 8 9 10 11 12 13 14 15 16 17 18 19 20 21 22 23 24 25 26 27 28 29 30 31
000
FTUS45 KBYZ 261723
TAFMLS
TAF
KMLS 261723Z 2618/2718 03010KT P6SM VCSH FEW006 OVC015
      TEMPO 2620/2623 3SM -RA BR SCT005 OVC010
     FM262300 02012KT 3SM -RA BR FEW006 OVC012
     FM270100 35012KT 1SM -RA BR OVC003
     FM270800 32008KT 4SM -RA BR SCT003 OVC010
     FM271400 32005KT P6SM -SHRA SCT020 BKN030=

USA.gov is the U.S. government's official web portal to all federal, state and local government web resources and services.